Time;durP1;ratioP1;P1;durP2;ratioP2;P2;SDS_P1;SDS_P2;PMS_P1;PMS_P2;Temp;Humidity;BMP_temperature;BMP_pressure;BME280_temperature;BME280_humidity;BME280_pressure;Samples;Min_cycle;Max_cycle;Signal;HPM_P1;HPM_P2
2023/05/29 00:01:43;;;;;;;5.63;1.10;;;;;;;9.16;84.53;100012.09;5067278;28;20409;-60
2023/05/29 00:04:14;;;;;;;2.67;1.00;;;;;;;9.11;85.10;100003.47;5087260;28;20054;-63
2023/05/29 00:06:45;;;;;;;2.42;0.80;;;;;;;9.13;85.96;100012.13;5076027;28;20105;-58
2023/05/29 00:09:15;;;;;;;0.85;0.60;;;;;;;9.09;84.57;100007.88;5087240;28;20112;-62
2023/05/29 00:11:50;;;;;;;2.92;0.82;;;;;;;9.13;83.56;100001.72;5076769;28;20048;-61
2023/05/29 00:14:22;;;;;;;3.33;0.75;;;;;;;9.24;82.70;100005.91;5086810;28;20054;-58
2023/05/29 00:16:54;;;;;;;1.92;0.90;;;;;;;9.25;83.20;100006.75;5057147;28;20077;-60
2023/05/29 00:19:25;;;;;;;0.65;0.57;;;;;;;9.55;82.36;100009.78;5072016;28;21353;-59
2023/05/29 00:21:55;;;;;;;1.45;0.88;;;;;;;9.69;82.54;100007.81;5075988;28;20048;-63
2023/05/29 00:24:26;;;;;;;1.77;0.70;;;;;;;9.78;80.23;100007.63;5080376;28;20043;-60
2023/05/29 00:26:58;;;;;;;1.98;0.60;;;;;;;9.90;81.01;100007.41;5069174;28;20097;-59
2023/05/29 00:29:29;;;;;;;4.65;1.25;;;;;;;10.24;80.60;99996.38;5077844;28;20087;-62
2023/05/29 00:32:00;;;;;;;3.50;1.25;;;;;;;10.48;80.89;99999.41;5087300;27;20131;-62
2023/05/29 00:34:30;;;;;;;6.70;1.73;;;;;;;10.57;77.44;99997.47;5076256;28;20093;-61
2023/05/29 00:37:01;;;;;;;9.13;1.70;;;;;;;10.63;78.19;100001.69;5086649;28;20458;-57
2023/05/29 00:39:32;;;;;;;6.30;1.10;;;;;;;10.85;78.02;100003.88;5081451;27;20054;-58
2023/05/29 00:42:04;;;;;;;4.07;0.70;;;;;;;11.00;77.94;100003.53;5085021;27;20079;-61
2023/05/29 00:44:35;;;;;;;3.38;0.90;;;;;;;11.17;76.67;100005.75;5076277;27;20497;-63
2023/05/29 00:47:07;;;;;;;3.50;0.57;;;;;;;11.26;74.47;100012.53;5084077;28;20047;-59
2023/05/29 00:49:39;;;;;;;1.67;0.50;;;;;;;11.23;73.90;100001.25;5073248;28;20059;-59
2023/05/29 00:52:11;;;;;;;1.35;0.60;;;;;;;11.07;74.82;99957.19;5087185;28;20078;-63
2023/05/29 00:54:46;;;;;;;2.65;0.80;;;;;;;11.45;73.99;100000.72;5076706;28;20100;-61
2023/05/29 00:57:19;;;;;;;4.32;1.00;;;;;;;11.37;73.75;100002.69;5073791;28;20136;-60
2023/05/29 00:59:50;;;;;;;3.85;0.80;;;;;;;11.07;72.84;99967.66;5072117;28;20044;-58
2023/05/29 01:02:22;;;;;;;6.05;1.30;;;;;;;11.40;73.60;100002.59;5082037;28;20113;-60
2023/05/29 01:04:54;;;;;;;1.80;0.68;;;;;;;11.50;74.50;99988.41;5075210;27;20468;-59
2023/05/29 01:07:24;;;;;;;1.25;0.55;;;;;;;11.43;71.13;100005.13;5086101;28;20062;-62
2023/05/29 01:10:01;;;;;;;0.77;0.52;;;;;;;11.25;72.37;100002.97;5076360;27;20580;-62
2023/05/29 01:12:42;;;;;;;2.13;0.68;;;;;;;11.17;72.87;100000.53;5052358;28;20066;-58
2023/05/29 01:15:27;;;;;;;2.20;0.50;;;;;;;11.05;73.40;100001.66;5071825;28;20075;-63
2023/05/29 01:18:19;;;;;;;1.00;0.57;;;;;;;11.20;73.69;100003.94;5058202;28;20483;-62
2023/05/29 01:20:58;;;;;;;2.33;0.90;;;;;;;11.13;73.86;99986.69;5061387;28;20787;-61
2023/05/29 01:23:49;;;;;;;3.45;0.70;;;;;;;11.39;73.56;99990.44;5062938;28;20063;-59
2023/05/29 01:26:37;;;;;;;0.50;0.50;;;;;;;11.50;72.44;99993.63;5072224;27;20052;-61
2023/05/29 01:29:11;;;;;;;1.55;0.70;;;;;;;11.53;71.90;99988.34;5071823;27;20043;-62
2023/05/29 01:31:43;;;;;;;0.60;0.50;;;;;;;11.69;71.94;99998.44;5071403;27;20079;-62
2023/05/29 01:34:14;;;;;;;1.33;0.43;;;;;;;11.85;71.63;99989.25;5081652;27;20054;-60
2023/05/29 01:36:46;;;;;;;2.47;0.52;;;;;;;12.14;71.76;99985.06;5071202;27;20051;-64
2023/05/29 01:39:18;;;;;;;6.13;1.10;;;;;;;12.44;72.09;99988.59;5082587;27;20579;-64
2023/05/29 01:41:52;;;;;;;3.45;0.90;;;;;;;12.29;68.34;99989.88;5075490;27;20059;-60
2023/05/29 01:44:23;;;;;;;3.70;0.70;;;;;;;12.22;69.06;99983.09;5087358;27;20048;-61
2023/05/29 01:46:55;;;;;;;6.55;1.67;;;;;;;12.34;70.09;99988.00;5072935;28;20047;-62
2023/05/29 01:49:29;;;;;;;0.90;0.52;;;;;;;12.42;69.10;99986.00;5084111;28;20051;-60
2023/05/29 01:52:00;;;;;;;0.65;0.60;;;;;;;12.51;69.61;99996.22;5053814;28;20105;-62
2023/05/29 01:54:31;;;;;;;1.73;0.60;;;;;;;12.68;69.10;99993.13;5053600;28;20065;-60
2023/05/29 01:57:05;;;;;;;1.75;0.50;;;;;;;12.75;66.11;99985.91;5066612;28;20087;-59
2023/05/29 01:59:38;;;;;;;4.82;1.10;;;;;;;12.57;68.79;99983.84;5072816;28;20054;-59
2023/05/29 02:02:09;;;;;;;1.95;0.52;;;;;;;12.30;67.94;99902.50;5084899;27;20043;-60
2023/05/29 02:04:40;;;;;;;2.45;0.60;;;;;;;12.93;67.71;99982.75;5071457;27;20032;-62
2023/05/29 02:07:11;;;;;;;0.85;0.60;;;;;;;12.99;68.11;99970.38;5065864;28;20075;-59
2023/05/29 02:09:42;;;;;;;0.82;0.50;;;;;;;13.02;65.71;99983.38;5055615;28;20051;-58
2023/05/29 02:12:15;;;;;;;0.50;0.50;;;;;;;12.64;65.48;99938.22;5065436;28;20147;-59
2023/05/29 02:14:46;;;;;;;1.67;0.68;;;;;;;12.88;66.76;99974.19;5054773;28;20515;-58
2023/05/29 02:17:19;;;;;;;3.65;1.10;;;;;;;12.93;67.59;99966.19;5065965;28;20051;-64
2023/05/29 02:19:49;;;;;;;1.42;0.80;;;;;;;13.10;65.67;99969.13;5055580;28;20096;-60
2023/05/29 02:22:20;;;;;;;3.65;1.20;;;;;;;13.28;65.50;99970.34;5065015;28;20044;-57
2023/05/29 02:24:51;;;;;;;2.38;0.80;;;;;;;13.18;64.57;99968.88;5055193;28;20075;-57
2023/05/29 02:27:23;;;;;;;0.98;0.50;;;;;;;13.29;65.86;99964.19;5065396;28;20089;-58
2023/05/29 02:29:53;;;;;;;2.72;1.00;;;;;;;13.49;64.09;99960.03;5058101;28;20154;-59
2023/05/29 02:32:24;;;;;;;0.63;0.50;;;;;;;13.50;64.29;99956.50;5084481;28;20405;-58
2023/05/29 02:34:55;;;;;;;0.70;0.60;;;;;;;13.60;65.04;99957.91;5064904;28;20058;-57
2023/05/29 02:37:26;;;;;;;0.43;0.43;;;;;;;13.43;62.66;99947.09;5067427;28;20052;-60
2023/05/29 02:39:57;;;;;;;0.98;0.50;;;;;;;13.23;64.53;99952.97;5054701;28;20039;-59
2023/05/29 02:42:29;;;;;;;0.50;0.40;;;;;;;12.99;62.87;99946.75;5080814;28;20082;-58
2023/05/29 02:45:00;;;;;;;3.40;1.30;;;;;;;12.96;66.11;99955.59;5084475;28;20048;-60
2023/05/29 02:47:31;;;;;;;0.50;0.50;;;;;;;12.77;65.63;99950.03;5073753;28;20055;-62
2023/05/29 02:50:02;;;;;;;2.67;0.70;;;;;;;12.83;66.47;99955.13;5085153;28;20051;-58
2023/05/29 02:52:33;;;;;;;0.50;0.50;;;;;;;13.00;67.30;99948.47;5074037;28;20134;-62
2023/05/29 02:55:05;;;;;;;0.82;0.43;;;;;;;13.25;67.39;99946.78;5084270;28;20047;-56
2023/05/29 02:57:37;;;;;;;0.50;0.50;;;;;;;13.17;66.84;99938.31;5073428;28;20493;-57
2023/05/29 03:00:13;;;;;;;1.83;0.50;;;;;;;13.13;66.33;99942.81;5083909;27;20100;-58
2023/05/29 03:02:43;;;;;;;2.70;1.00;;;;;;;12.98;66.19;99942.41;5055715;28;20532;-60
2023/05/29 03:05:14;;;;;;;2.33;0.57;;;;;;;12.86;66.36;99944.53;5072640;28;20058;-61
2023/05/29 03:07:45;;;;;;;1.20;0.60;;;;;;;12.98;67.80;99953.78;5073230;28;20047;-58
2023/05/29 03:10:16;;;;;;;1.23;0.60;;;;;;;12.98;65.82;99953.78;5083840;28;20062;-58
2023/05/29 03:12:49;;;;;;;2.10;0.70;;;;;;;12.79;66.37;99944.75;5073339;28;20045;-61
2023/05/29 03:15:20;;;;;;;1.85;0.45;;;;;;;12.89;66.34;99948.81;5083442;28;20075;-60
2023/05/29 03:17:51;;;;;;;0.63;0.50;;;;;;;13.02;66.18;99944.03;5073112;28;20561;-60
2023/05/29 03:20:21;;;;;;;1.90;0.60;;;;;;;13.23;66.09;99932.00;5083827;28;20062;-57
2023/05/29 03:22:52;;;;;;;0.57;0.47;;;;;;;13.49;66.09;99933.81;5073497;28;20066;-60
2023/05/29 03:25:22;;;;;;;0.80;0.50;;;;;;;13.34;64.52;99894.03;5083401;28;20104;-57
2023/05/29 03:27:55;;;;;;;0.65;0.57;;;;;;;13.80;63.43;99929.22;5073001;28;20044;-58
2023/05/29 03:30:25;;;;;;;0.60;0.45;;;;;;;14.01;64.58;99927.59;5083852;28;20071;-58
2023/05/29 03:32:56;;;;;;;1.30;0.60;;;;;;;14.25;63.16;99914.47;5072760;28;20108;-57
2023/05/29 03:35:27;;;;;;;0.52;0.50;;;;;;;14.21;61.97;99924.25;5083596;28;20040;-59
2023/05/29 03:37:57;;;;;;;1.03;0.70;;;;;;;14.07;62.98;99916.00;5073346;28;20055;-58
2023/05/29 03:40:31;;;;;;;1.77;0.60;;;;;;;14.41;63.86;99920.03;5079264;28;20396;-59
2023/05/29 03:43:03;;;;;;;1.30;0.50;;;;;;;14.34;61.82;99919.38;5084088;28;20281;-58
2023/05/29 03:45:33;;;;;;;1.23;0.60;;;;;;;14.29;61.36;99925.72;5073887;28;20048;-56
2023/05/29 03:48:04;;;;;;;1.30;0.52;;;;;;;14.23;60.64;99917.16;5083948;28;20274;-55
2023/05/29 03:50:35;;;;;;;0.90;0.70;;;;;;;14.16;61.25;99914.81;5073661;28;20783;-60
2023/05/29 03:53:08;;;;;;;0.40;0.40;;;;;;;14.13;63.37;99886.88;5084261;28;20277;-58
2023/05/29 03:55:38;;;;;;;1.60;0.70;;;;;;;14.39;64.37;99906.06;5073459;28;20687;-58
2023/05/29 03:58:12;;;;;;;2.13;0.68;;;;;;;14.34;63.97;99884.38;5072410;28;20270;-57
2023/05/29 04:00:42;;;;;;;1.40;0.67;;;;;;;14.60;64.74;99897.41;5054196;28;20379;-57
2023/05/29 04:03:13;;;;;;;3.83;1.23;;;;;;;14.70;64.47;99899.66;5064224;28;20314;-58
2023/05/29 04:05:44;;;;;;;1.57;0.80;;;;;;;14.72;64.44;99897.84;5065047;28;21130;-58
2023/05/29 04:08:14;;;;;;;0.97;0.60;;;;;;;14.71;63.50;99902.25;5084186;28;20270;-56
2023/05/29 04:10:46;;;;;;;1.23;0.80;;;;;;;14.76;63.86;99909.97;5073079;28;20289;-57
2023/05/29 04:13:18;;;;;;;0.87;0.60;;;;;;;14.94;64.20;99903.97;5083301;28;20375;-59
2023/05/29 04:15:49;;;;;;;4.37;0.93;;;;;;;15.15;63.93;99906.63;5072434;28;20351;-58
2023/05/29 04:18:19;;;;;;;17.03;2.63;;;;;;;15.08;63.24;99906.91;5083089;28;20278;-57
2023/05/29 04:20:50;;;;;;;6.40;3.07;;;;;;;14.85;61.63;99896.41;5072786;28;20313;-59
2023/05/29 04:23:21;;;;;;;2.10;1.40;;;;;;;14.83;63.55;99911.44;5085338;28;20269;-59
2023/05/29 04:25:52;;;;;;;2.67;0.80;;;;;;;14.68;62.57;99902.38;5076762;27;20289;-58
2023/05/29 04:28:24;;;;;;;2.10;0.50;;;;;;;14.50;63.24;99903.88;5086491;28;20297;-56
2023/05/29 04:30:56;;;;;;;0.63;0.60;;;;;;;14.39;63.95;99901.66;5082932;27;20269;-59
2023/05/29 04:33:28;;;;;;;0.80;0.50;;;;;;;14.01;62.37;99906.56;5085972;28;20286;-57
2023/05/29 04:36:00;;;;;;;1.00;0.70;;;;;;;13.89;62.93;99914.03;5086437;28;20303;-58
2023/05/29 04:38:31;;;;;;;0.70;0.70;;;;;;;13.85;64.38;99912.44;5076334;27;20290;-59
2023/05/29 04:41:01;;;;;;;0.97;0.70;;;;;;;13.91;65.89;99909.59;5087421;28;20383;-57
2023/05/29 04:43:36;;;;;;;1.50;0.73;;;;;;;13.95;66.23;99917.31;5077089;27;20280;-57
2023/05/29 04:46:12;;;;;;;1.40;0.77;;;;;;;13.98;66.54;99916.34;5087196;28;20290;-58
2023/05/29 04:48:43;;;;;;;2.33;0.60;;;;;;;13.89;66.93;99904.38;5076638;28;20301;-59
2023/05/29 04:51:14;;;;;;;0.60;0.60;;;;;;;13.98;67.40;99913.72;5087081;28;20285;-58
2023/05/29 04:53:44;;;;;;;3.13;1.37;;;;;;;14.05;67.99;99912.56;5070537;27;20726;-60
2023/05/29 04:56:15;;;;;;;4.50;1.30;;;;;;;14.10;68.76;99913.25;5067269;28;20270;-57
2023/05/29 04:58:50;;;;;;;2.40;1.50;;;;;;;14.11;68.43;99916.75;5071624;27;20273;-57
2023/05/29 05:01:21;;;;;;;1.23;0.60;;;;;;;14.15;68.80;99908.72;5086022;27;20670;-60
2023/05/29 05:03:54;;;;;;;0.77;0.60;;;;;;;14.18;69.04;99913.84;5067473;28;20273;-56
2023/05/29 05:06:25;;;;;;;1.93;0.93;;;;;;;14.03;69.22;99914.41;5086080;28;20600;-60
2023/05/29 05:08:56;;;;;;;1.73;0.77;;;;;;;13.90;69.21;99903.47;5075713;28;20305;-57
2023/05/29 05:11:26;;;;;;;0.87;0.70;;;;;;;13.77;69.08;99907.44;5086035;27;20645;-60
2023/05/29 05:13:58;;;;;;;2.30;1.30;;;;;;;13.91;70.01;99904.34;5075974;28;20300;-59
2023/05/29 05:16:29;;;;;;;1.30;0.70;;;;;;;14.08;70.68;99901.97;5075270;28;20817;-60
2023/05/29 05:19:00;;;;;;;1.90;1.00;;;;;;;14.18;69.81;99908.59;5085838;28;20277;-59
2023/05/29 05:21:31;;;;;;;6.37;1.00;;;;;;;14.38;70.39;99909.63;5075253;28;21028;-61
2023/05/29 05:24:02;;;;;;;3.23;0.70;;;;;;;14.55;69.86;99890.59;5085387;28;20381;-56
2023/05/29 05:26:33;;;;;;;0.87;0.60;;;;;;;14.49;69.20;99856.63;5075235;28;20293;-60
2023/05/29 05:29:06;;;;;;;0.70;0.40;;;;;;;14.88;67.95;99904.22;5086016;28;20277;-58
2023/05/29 05:31:36;;;;;;;0.50;0.50;;;;;;;14.92;67.02;99895.25;5074940;28;20285;-60
2023/05/29 05:34:07;;;;;;;1.30;0.53;;;;;;;15.05;68.22;99906.16;5085728;27;20269;-62
2023/05/29 05:36:37;;;;;;;5.00;1.20;;;;;;;15.08;67.59;99906.91;5074943;27;20328;-61
2023/05/29 05:39:08;;;;;;;8.17;1.33;;;;;;;14.91;67.79;99904.09;5085579;28;20392;-62
2023/05/29 05:41:38;;;;;;;9.07;1.60;;;;;;;14.52;67.78;99902.06;5075178;28;20338;-62
2023/05/29 05:44:11;;;;;;;4.87;1.33;;;;;;;14.07;68.63;99884.47;5086071;27;20289;-60
2023/05/29 05:46:41;;;;;;;6.47;1.10;;;;;;;14.00;70.11;99898.75;5075150;27;20799;-61
2023/05/29 05:49:13;;;;;;;7.73;1.43;;;;;;;13.96;70.59;99892.75;5085470;27;20277;-61
2023/05/29 05:51:44;;;;;;;7.27;1.40;;;;;;;14.02;70.14;99902.19;5054939;28;20452;-59
2023/05/29 05:54:14;;;;;;;5.47;1.63;;;;;;;13.93;70.62;99905.16;5064866;28;20335;-59
2023/05/29 05:56:45;;;;;;;10.30;1.67;;;;;;;13.82;70.68;99885.34;5054571;28;20409;-58
2023/05/29 05:59:18;;;;;;;6.00;1.77;;;;;;;13.89;70.50;99898.28;5065542;28;20313;-58
2023/05/29 06:01:49;;;;;;;5.73;1.30;;;;;;;13.72;70.61;99877.88;5073307;28;20788;-58
2023/05/29 06:04:20;;;;;;;6.23;1.67;;;;;;;13.86;70.86;99898.41;5068764;28;20310;-57
2023/05/29 06:06:50;;;;;;;10.13;2.03;;;;;;;13.73;71.52;99901.47;5062508;28;20774;-57
2023/05/29 06:09:21;;;;;;;9.63;2.00;;;;;;;13.65;72.12;99898.22;5065210;28;20282;-58
2023/05/29 06:11:52;;;;;;;7.80;2.00;;;;;;;13.63;72.83;99889.56;5054721;28;20288;-58
2023/05/29 06:14:25;;;;;;;13.20;1.77;;;;;;;13.61;73.00;99891.38;5065192;28;20298;-56
2023/05/29 06:16:56;;;;;;;6.63;2.03;;;;;;;13.57;73.33;99895.00;5074477;28;20767;-57
2023/05/29 06:19:26;;;;;;;16.27;2.40;;;;;;;13.52;73.48;99896.94;5087638;27;20297;-60
2023/05/29 06:21:57;;;;;;;10.57;2.27;;;;;;;13.30;73.64;99897.66;5083059;27;20293;-60
2023/05/29 06:24:27;;;;;;;8.93;2.10;;;;;;;12.98;74.10;99879.47;5081445;27;20334;-60
2023/05/29 06:26:58;;;;;;;8.93;2.13;;;;;;;12.98;75.38;99896.09;5080876;27;20289;-63
2023/05/29 06:29:31;;;;;;;10.13;2.53;;;;;;;12.88;75.63;99906.00;5071647;27;20036;-63
2023/05/29 06:32:02;;;;;;;23.33;2.57;;;;;;;12.80;75.51;99902.75;5083746;27;20055;-63
2023/05/29 06:34:35;;;;;;;9.02;2.30;;;;;;;12.75;76.34;99904.66;5070843;27;21234;-62
2023/05/29 06:37:06;;;;;;;16.35;2.53;;;;;;;12.75;76.48;99899.41;5080343;27;20050;-59
2023/05/29 06:39:37;;;;;;;10.68;2.40;;;;;;;12.64;77.12;99896.28;5070612;27;20075;-60
2023/05/29 06:42:08;;;;;;;9.93;2.40;;;;;;;12.80;76.69;99905.38;5080806;27;20150;-62
2023/05/29 06:44:40;;;;;;;11.75;1.95;;;;;;;12.77;76.39;99897.59;5070378;27;20051;-63
2023/05/29 06:47:10;;;;;;;9.63;2.28;;;;;;;12.80;76.02;99892.25;5080545;28;20115;-61
2023/05/29 06:49:42;;;;;;;8.15;1.90;;;;;;;12.87;76.36;99901.66;5070446;27;20067;-62
2023/05/29 06:52:13;;;;;;;9.38;1.75;;;;;;;13.10;76.51;99900.06;5080365;28;20435;-62
2023/05/29 06:54:44;;;;;;;10.68;2.00;;;;;;;13.36;75.31;99892.22;5070698;27;20063;-60
2023/05/29 06:57:17;;;;;;;7.50;2.50;;;;;;;13.96;74.60;99889.28;5081746;28;20062;-62
2023/05/29 06:59:49;;;;;;;8.20;2.22;;;;;;;14.30;73.10;99886.25;5070752;28;20450;-62
2023/05/29 07:02:20;;;;;;;8.57;2.00;;;;;;;14.72;72.01;99882.06;5081156;28;20531;-64
2023/05/29 07:04:51;;;;;;;10.87;1.90;;;;;;;14.90;71.29;99891.84;5064359;28;20290;-62
2023/05/29 07:07:22;;;;;;;5.87;1.80;;;;;;;14.86;69.60;99883.22;5071171;28;20274;-62
2023/05/29 07:09:52;;;;;;;6.67;1.57;;;;;;;14.95;70.31;99883.75;5068878;28;20770;-60
2023/05/29 07:12:25;;;;;;;6.67;1.73;;;;;;;15.04;69.45;99884.25;5072311;28;20284;-62
2023/05/29 07:14:58;;;;;;;5.87;1.67;;;;;;;15.03;68.88;99887.81;5060441;28;20883;-62
2023/05/29 07:17:28;;;;;;;8.27;1.70;;;;;;;15.12;69.39;99885.72;5071053;28;20618;-62
2023/05/29 07:19:59;;;;;;;7.23;2.00;;;;;;;14.97;68.66;99885.41;5078006;28;20277;-61
2023/05/29 07:22:30;;;;;;;8.97;1.87;;;;;;;15.14;67.64;99873.34;5060631;28;20351;-59
2023/05/29 07:25:00;;;;;;;6.57;2.13;;;;;;;15.08;67.35;99875.31;5070456;28;20278;-63
2023/05/29 07:27:31;;;;;;;5.57;2.37;;;;;;;15.27;66.62;99864.88;5060004;28;21158;-62
2023/05/29 07:30:07;;;;;;;11.97;2.87;;;;;;;15.29;66.52;99851.66;5070324;28;20366;-61
2023/05/29 07:32:37;;;;;;;14.33;2.03;;;;;;;15.29;65.94;99867.44;5060204;28;20318;-61
2023/05/29 07:35:08;;;;;;;6.57;2.20;;;;;;;15.04;66.89;99868.47;5077751;28;20286;-59
2023/05/29 07:37:39;;;;;;;13.23;1.93;;;;;;;14.73;66.96;99868.00;5059406;28;20281;-62
2023/05/29 07:40:10;;;;;;;9.83;2.23;;;;;;;14.42;67.93;99858.63;5070149;28;20367;-60
2023/05/29 07:42:41;;;;;;;11.67;2.13;;;;;;;14.13;69.02;99847.47;5059774;28;20294;-61
2023/05/29 07:45:13;;;;;;;9.30;2.10;;;;;;;14.18;69.46;99849.94;5072774;28;20317;-57
2023/05/29 07:47:44;;;;;;;8.30;2.30;;;;;;;14.23;69.14;99848.00;5067745;28;20286;-59
2023/05/29 07:50:17;;;;;;;9.27;2.10;;;;;;;14.21;69.69;99853.28;5078403;28;20277;-58
2023/05/29 07:52:48;;;;;;;7.77;1.83;;;;;;;13.93;69.70;99844.75;5060172;28;20293;-59
2023/05/29 07:55:20;;;;;;;6.30;1.60;;;;;;;13.70;70.34;99843.78;5068984;28;20372;-61
2023/05/29 07:57:50;;;;;;;7.70;1.57;;;;;;;13.54;70.08;99845.25;5068525;28;21107;-59
2023/05/29 08:00:23;;;;;;;10.50;2.07;;;;;;;13.61;71.16;99844.13;5078601;27;20644;-58
2023/05/29 08:02:54;;;;;;;6.40;2.23;;;;;;;13.46;71.46;99824.53;5059435;28;20353;-60
2023/05/29 08:05:25;;;;;;;11.03;1.97;;;;;;;13.43;71.75;99834.25;5073781;28;20294;-60
2023/05/29 08:07:56;;;;;;;7.68;1.90;;;;;;;13.46;72.06;99839.44;5059513;28;20343;-61
2023/05/29 08:10:27;;;;;;;9.73;2.60;;;;;;;13.71;71.96;99828.91;5073241;28;20043;-58
2023/05/29 08:12:58;;;;;;;12.53;2.43;;;;;;;13.94;71.77;99825.44;5070203;28;20314;-61
2023/05/29 08:15:31;;;;;;;10.20;2.60;;;;;;;14.09;71.37;99827.47;5067757;28;20368;-60
2023/05/29 08:18:01;;;;;;;5.37;2.30;;;;;;;14.26;71.24;99826.84;5073488;28;20901;-60
2023/05/29 08:20:34;;;;;;;8.83;2.20;;;;;;;14.37;70.46;99829.06;5063286;28;20325;-60
2023/05/29 08:23:05;;;;;;;9.87;2.17;;;;;;;14.44;69.60;99830.53;5073778;28;20286;-59
2023/05/29 08:25:36;;;;;;;10.43;1.93;;;;;;;14.44;68.95;99830.53;5063174;28;20277;-61
2023/05/29 08:28:07;;;;;;;8.17;2.30;;;;;;;14.06;69.40;99798.72;5073034;28;20278;-60
2023/05/29 08:30:41;;;;;;;8.40;2.30;;;;;;;14.30;69.41;99831.03;5062949;28;20274;-59
2023/05/29 08:33:11;;;;;;;15.40;5.93;;;;;;;14.34;69.71;99829.19;5073061;28;20376;-58
2023/05/29 08:35:42;;;;;;;19.13;6.27;;;;;;;14.22;69.70;99828.72;5063230;28;20803;-59
2023/05/29 08:38:13;;;;;;;12.80;5.73;;;;;;;14.26;69.16;99815.47;5081670;28;20291;-61
2023/05/29 08:40:44;;;;;;;14.40;5.40;;;;;;;14.32;68.86;99826.59;5061888;27;20309;-60
2023/05/29 08:43:18;;;;;;;12.43;4.50;;;;;;;14.08;69.52;99833.66;5072698;28;20327;-60
2023/05/29 08:45:54;;;;;;;8.40;3.20;;;;;;;13.98;69.44;99822.63;5061411;28;20279;-60
2023/05/29 08:48:26;;;;;;;9.30;3.00;;;;;;;14.02;69.69;99831.25;5072950;27;20825;-60
2023/05/29 08:50:58;;;;;;;7.17;2.57;;;;;;;13.98;69.10;99824.41;5058763;28;20280;-61
2023/05/29 08:53:31;;;;;;;9.87;3.53;;;;;;;14.03;69.52;99830.34;5062739;28;20278;-59
2023/05/29 08:56:03;;;;;;;7.97;2.40;;;;;;;14.19;69.47;99836.72;5073048;28;20742;-60
2023/05/29 08:58:35;;;;;;;10.27;2.20;;;;;;;14.27;68.53;99833.78;5063355;27;20381;-61
2023/05/29 09:01:08;;;;;;;11.17;2.47;;;;;;;13.77;68.70;99761.25;5072576;28;20728;-61
2023/05/29 09:03:41;;;;;;;13.73;2.50;;;;;;;14.17;68.49;99833.28;5061878;28;20313;-60
2023/05/29 09:06:13;;;;;;;10.20;2.70;;;;;;;14.14;68.56;99836.03;5073181;28;20323;-60
2023/05/29 09:08:46;;;;;;;4.73;2.10;;;;;;;14.07;68.55;99841.59;5062012;28;20281;-61
2023/05/29 09:11:17;;;;;;;8.03;2.37;;;;;;;13.88;68.46;99846.66;5072344;28;20346;-60
2023/05/29 09:14:04;;;;;;;6.93;2.50;;;;;;;13.84;69.08;99852.94;5060160;28;20298;-61
2023/05/29 09:16:44;;;;;;;8.07;3.50;;;;;;;13.81;68.99;99849.53;5068660;28;20293;-61
2023/05/29 09:19:45;;;;;;;;;;;;;;;;;;;;;
2023/05/29 09:22:40;;;;;;;10.67;3.27;;;;;;;13.81;69.84;99857.41;5056264;28;20282;-60
2023/05/29 09:25:57;;;;;;;9.47;2.93;;;;;;;13.80;69.68;99853.06;5068428;28;20697;-61
2023/05/29 09:28:53;;;;;;;30.37;3.60;;;;;;;13.82;69.64;99864.34;5025203;27;20396;-60
2023/05/29 09:31:33;;;;;;;10.10;2.93;;;;;;;13.43;69.72;99834.25;5071019;27;20358;-62
2023/05/29 09:34:23;;;;;;;9.10;3.05;;;;;;;13.60;70.47;99863.41;5080521;27;20288;-61
2023/05/29 09:43:30;;;;;;;10.20;3.30;;;;;;;13.56;71.02;99878.41;5035566;28;20819;-61
2023/05/29 09:46:05;;;;;;;9.80;4.30;;;;;;;13.43;70.51;99855.25;5070509;27;20289;-59
2023/05/29 09:48:39;;;;;;;14.73;4.90;;;;;;;13.38;71.17;99872.03;5071407;27;20269;-61
2023/05/29 09:52:02;;;;;;;20.52;10.80;;;;;;;13.19;72.29;99878.78;5081933;27;20313;-63
2023/05/29 09:55:10;;;;;;;;;;;;;;;12.85;72.51;99873.75;5043850;28;20514;-60
2023/05/29 10:01:24;;;;;;;17.35;2.90;;;;;;;12.04;74.78;99875.31;5071122;28;20466;-58
2023/05/29 10:04:09;;;;;;;17.67;3.25;;;;;;;11.78;76.45;99883.00;5066925;28;20591;-61
2023/05/29 10:06:48;;;;;;;10.68;3.13;;;;;;;11.61;77.21;99881.72;5056894;28;20121;-60
2023/05/29 10:09:25;;;;;;;10.88;2.65;;;;;;;11.23;77.01;99896.66;5064314;28;20104;-62
2023/05/29 10:12:07;;;;;;;8.98;2.38;;;;;;;10.77;78.90;99882.06;5057645;28;20426;-60
2023/05/29 10:14:44;;;;;;;11.68;2.65;;;;;;;10.35;80.41;99842.94;5060691;28;20051;-61
2023/05/29 10:21:37;;;;;;;5.32;2.13;;;;;;;10.27;80.58;99884.00;5022295;28;20150;-62
2023/05/29 10:24:53;;;;;;;6.47;1.67;;;;;;;10.04;79.11;99899.31;5048301;28;20157;-60
2023/05/29 10:27:33;;;;;;;4.15;1.65;;;;;;;9.81;78.44;99892.78;5071544;28;20047;-62
2023/05/29 10:30:14;;;;;;;7.00;1.42;;;;;;;9.57;78.24;99867.16;5057734;28;20079;-63
2023/05/29 10:33:13;;;;;;;5.38;1.30;;;;;;;9.55;77.00;99897.59;5059813;28;20431;-61
2023/05/29 10:35:48;;;;;;;;;;;;;;;9.36;76.10;99897.94;5061490;28;20073;-62
2023/05/29 10:38:23;;;;;;;6.45;1.40;;;;;;;9.15;76.14;99887.88;5070909;28;19930;-62
2023/05/29 10:41:39;;;;;;;4.43;1.52;;;;;;;9.11;75.30;99904.44;5061470;28;20043;-61
2023/05/29 10:45:08;;;;;;;3.78;1.20;;;;;;;9.01;75.57;99907.22;5066531;28;20086;-61
2023/05/29 10:47:44;;;;;;;4.95;1.20;;;;;;;8.91;74.76;99907.34;5058981;28;20047;-64
2023/05/29 10:50:36;;;;;;;3.72;1.88;;;;;;;8.78;75.10;99911.88;5069820;28;20036;-61
2023/05/29 10:53:33;;;;;;;4.63;2.00;;;;;;;8.61;75.49;99915.63;5070463;27;20516;-63
2023/05/29 10:56:16;;;;;;;6.40;1.90;;;;;;;8.43;76.40;99916.69;5053753;28;20051;-62
2023/05/29 10:58:54;;;;;;;3.38;1.75;;;;;;;8.32;76.96;99915.97;5069387;28;20044;-62
2023/05/29 11:01:26;;;;;;;9.63;2.47;;;;;;;8.16;77.91;99912.69;5079812;27;20185;-62
2023/05/29 11:04:36;;;;;;;6.70;2.67;;;;;;;8.02;78.68;99913.75;5070250;27;20065;-62
2023/05/29 11:07:37;;;;;;;7.07;2.20;;;;;;;7.85;79.37;99913.91;5085524;27;20043;-61
2023/05/29 11:10:15;;;;;;;5.20;2.40;;;;;;;7.64;80.11;99910.66;5063231;28;20047;-61
2023/05/29 11:13:08;;;;;;;6.93;2.08;;;;;;;7.62;79.25;99920.22;5068043;27;20073;-62
2023/05/29 11:15:47;;;;;;;5.13;2.20;;;;;;;7.50;79.56;99909.94;5057975;28;20101;-64
2023/05/29 11:18:28;;;;;;;5.82;2.00;;;;;;;7.51;79.97;99911.66;5067374;28;20040;-65
2023/05/29 11:21:04;;;;;;;5.53;1.80;;;;;;;7.48;79.21;99922.09;5048314;28;20047;-66
2023/05/29 11:23:35;;;;;;;4.43;2.05;;;;;;;6.86;79.52;99818.69;5063841;28;20052;-63
2023/05/29 11:26:09;;;;;;;7.70;1.95;;;;;;;7.42;78.70;99920.41;5069820;28;20789;-62
2023/05/29 11:28:42;;;;;;;5.53;1.80;;;;;;;7.45;78.81;99933.38;5059439;28;20048;-61
2023/05/29 11:31:13;;;;;;;5.60;2.40;;;;;;;7.41;78.48;99931.66;5070443;28;20055;-63
2023/05/29 11:33:56;;;;;;;8.38;4.70;;;;;;;7.40;78.83;99934.28;5064457;28;20062;-62
2023/05/29 11:36:29;;;;;;;9.20;4.25;;;;;;;7.45;79.63;99922.13;5062204;27;20043;-63
2023/05/29 11:39:04;;;;;;;7.13;2.03;;;;;;;7.45;79.09;99927.31;5077320;27;20575;-63
2023/05/29 11:41:37;;;;;;;7.53;3.70;;;;;;;7.39;78.78;99922.16;5067028;28;20052;-61
2023/05/29 11:44:33;;;;;;;5.88;3.10;;;;;;;7.05;80.25;99933.69;5074076;28;20051;-64
2023/05/29 11:47:10;;;;;;;5.90;3.53;;;;;;;6.83;81.96;99922.59;5031102;28;20084;-63
2023/05/29 11:49:54;;;;;;;6.07;3.97;;;;;;;6.66;83.01;99919.22;5062084;28;20051;-64
2023/05/29 11:52:27;;;;;;;3.20;1.63;;;;;;;6.53;84.05;99922.78;5077383;27;20120;-65
2023/05/29 11:55:09;;;;;;;4.93;1.73;;;;;;;6.39;84.95;99910.75;5069677;28;20150;-64
2023/05/29 11:57:39;;;;;;;7.97;4.50;;;;;;;6.29;85.75;99924.63;5071547;27;20389;-63
2023/05/29 12:00:28;;;;;;;7.10;3.58;;;;;;;6.16;87.27;99928.13;5083309;27;20156;-63
2023/05/29 12:03:03;;;;;;;7.15;3.65;;;;;;;5.52;87.61;99831.50;5066266;28;20062;-63
2023/05/29 12:05:52;;;;;;;4.45;2.33;;;;;;;6.00;87.88;99910.03;5063406;28;20048;-65
2023/05/29 12:08:26;;;;;;;;;;;;;;;6.16;88.37;99912.56;5071005;28;20121;-64
2023/05/29 12:11:26;;;;;;;10.98;6.47;;;;;;;6.08;87.79;99919.53;5064803;27;19923;-62
2023/05/29 12:14:16;;;;;;;11.35;5.78;;;;;;;5.90;88.69;99930.78;5053314;28;20737;-63
2023/05/29 12:17:30;;;;;;;9.50;6.60;;;;;;;5.79;89.25;99915.22;5058203;28;20052;-62
2023/05/29 12:20:16;;;;;;;12.40;6.55;;;;;;;5.92;89.29;99903.13;5070308;28;20065;-64
2023/05/29 12:26:44;;;;;;;3.60;2.33;;;;;;;5.95;87.48;99904.00;5061229;28;20052;-61
2023/05/29 12:30:05;;;;;;;6.10;2.05;;;;;;;5.94;86.65;99924.75;5071119;28;20263;-64